Time;durP1;ratioP1;P1;durP2;ratioP2;P2;SDS_P1;SDS_P2;PMS_P1;PMS_P2;Temp;Humidity;BMP_temperature;BMP_pressure;BME280_temperature;BME280_humidity;BME280_pressure;Samples;Min_cycle;Max_cycle;Signal;HPM_P1;HPM_P2
2024/01/06 00:01:39;;;;;;;60.77;20.73;;;;;;;;;;5029724;28;20053;-65
2024/01/06 00:04:05;;;;;;;74.40;22.83;;;;;;;;;;5029556;28;20048;-65
2024/01/06 00:06:31;;;;;;;69.87;22.03;;;;;;;;;;5029021;28;20045;-64
2024/01/06 00:08:57;;;;;;;65.37;23.67;;;;;;;;;;5029763;28;20050;-65
2024/01/06 00:11:23;;;;;;;56.03;20.93;;;;;;;;;;5028732;28;20148;-65
2024/01/06 00:13:50;;;;;;;64.40;21.50;;;;;;;;;;5029007;28;20444;-65
2024/01/06 00:16:19;;;;;;;67.13;20.93;;;;;;;;;;5029056;28;20577;-65
2024/01/06 00:18:45;;;;;;;54.23;19.73;;;;;;;;;;5027709;28;20384;-65
2024/01/06 00:21:11;;;;;;;64.90;23.50;;;;;;;;;;5026972;28;20042;-65
2024/01/06 00:23:37;;;;;;;68.13;23.17;;;;;;;;;;5029196;28;20107;-64
2024/01/06 00:26:04;;;;;;;63.57;22.37;;;;;;;;;;5028791;28;20045;-65
2024/01/06 00:28:30;;;;;;;65.07;22.40;;;;;;;;;;5028731;28;20076;-65
2024/01/06 00:30:56;;;;;;;60.23;21.57;;;;;;;;;;5028943;28;20074;-65
2024/01/06 00:33:22;;;;;;;59.53;21.80;;;;;;;;;;5029108;28;20538;-65
2024/01/06 00:35:48;;;;;;;65.70;22.23;;;;;;;;;;5028336;28;20519;-65
2024/01/06 00:38:15;;;;;;;64.87;23.53;;;;;;;;;;5029057;28;20446;-65
2024/01/06 00:40:41;;;;;;;59.30;21.87;;;;;;;;;;5028712;28;20120;-65
2024/01/06 00:43:07;;;;;;;60.87;23.03;;;;;;;;;;5028816;28;20053;-65
2024/01/06 00:45:33;;;;;;;66.37;23.23;;;;;;;;;;5027009;28;20050;-64
2024/01/06 00:47:59;;;;;;;67.33;22.67;;;;;;;;;;5028260;28;20412;-65
2024/01/06 00:50:25;;;;;;;69.13;23.93;;;;;;;;;;5028635;28;20507;-65
2024/01/06 00:52:52;;;;;;;70.03;24.23;;;;;;;;;;5028763;28;20135;-65
2024/01/06 00:55:18;;;;;;;77.50;26.10;;;;;;;;;;5028913;28;20490;-65
2024/01/06 00:57:44;;;;;;;91.60;30.77;;;;;;;;;;5028143;28;20055;-64
2024/01/06 01:00:11;;;;;;;65.63;24.07;;;;;;;;;;5028300;28;20045;-64
2024/01/06 01:02:37;;;;;;;72.97;26.80;;;;;;;;;;5028795;28;20045;-65
2024/01/06 01:05:03;;;;;;;88.80;27.70;;;;;;;;;;5028854;28;20041;-65
2024/01/06 01:07:30;;;;;;;79.83;27.50;;;;;;;;;;5028587;28;20053;-64
2024/01/06 01:09:56;;;;;;;92.67;29.93;;;;;;;;;;5026272;28;20052;-65
2024/01/06 01:12:23;;;;;;;98.13;33.03;;;;;;;;;;5028705;28;20049;-64
2024/01/06 01:14:49;;;;;;;103.93;31.90;;;;;;;;;;5028040;28;20423;-65
2024/01/06 01:17:15;;;;;;;109.77;35.23;;;;;;;;;;5028252;28;20431;-64
2024/01/06 01:19:41;;;;;;;111.10;35.90;;;;;;;;;;5028106;28;20585;-65
2024/01/06 01:22:07;;;;;;;119.03;35.33;;;;;;;;;;5027798;28;20338;-64
2024/01/06 01:24:33;;;;;;;123.90;35.90;;;;;;;;;;5028531;28;20137;-64
2024/01/06 01:26:59;;;;;;;117.40;36.57;;;;;;;;;;5028176;28;20053;-65
2024/01/06 01:29:25;;;;;;;115.37;34.47;;;;;;;;;;5028075;28;20145;-65
2024/01/06 01:31:51;;;;;;;123.30;36.20;;;;;;;;;;5026000;28;20069;-65
2024/01/06 01:34:17;;;;;;;117.93;35.83;;;;;;;;;;5027926;28;20049;-65
2024/01/06 01:36:43;;;;;;;122.27;36.20;;;;;;;;;;5028362;28;20049;-64
2024/01/06 01:39:09;;;;;;;149.73;39.07;;;;;;;;;;5028025;28;20053;-65
2024/01/06 01:41:35;;;;;;;142.17;39.70;;;;;;;;;;5027705;28;20045;-64
2024/01/06 01:44:02;;;;;;;166.77;41.93;;;;;;;;;;5026521;28;20045;-65
2024/01/06 01:46:28;;;;;;;144.93;37.27;;;;;;;;;;5028148;28;20064;-64
2024/01/06 01:48:59;;;;;;;151.20;40.37;;;;;;;;;;5028279;28;20080;-65
2024/01/06 01:51:27;;;;;;;151.73;40.00;;;;;;;;;;5027697;28;20045;-65
2024/01/06 01:53:53;;;;;;;125.13;35.43;;;;;;;;;;5027842;28;20045;-64
2024/01/06 01:56:20;;;;;;;117.47;35.17;;;;;;;;;;5028353;28;20087;-65
2024/01/06 01:58:46;;;;;;;111.30;33.47;;;;;;;;;;5027704;28;20515;-64
2024/01/06 02:01:12;;;;;;;111.03;34.53;;;;;;;;;;5026692;28;20562;-64
2024/01/06 02:03:43;;;;;;;128.17;37.93;;;;;;;;;;5025749;28;20042;-65
2024/01/06 02:06:09;;;;;;;122.13;36.63;;;;;;;;;;5025376;28;20107;-64
2024/01/06 02:08:35;;;;;;;111.80;33.17;;;;;;;;;;5028184;28;20056;-64
2024/01/06 02:11:01;;;;;;;152.67;38.87;;;;;;;;;;5027734;28;20107;-65
2024/01/06 02:13:37;;;;;;;125.53;35.33;;;;;;;;;;5027713;28;20509;-65
2024/01/06 02:16:04;;;;;;;126.43;34.90;;;;;;;;;;5026092;28;20052;-65
2024/01/06 02:18:31;;;;;;;133.80;37.47;;;;;;;;;;5027908;28;20120;-65
2024/01/06 02:20:58;;;;;;;127.20;35.47;;;;;;;;;;5022894;28;20046;-65
2024/01/06 02:23:24;;;;;;;159.20;39.93;;;;;;;;;;5007969;28;20054;-64
2024/01/06 02:25:50;;;;;;;149.93;37.40;;;;;;;;;;5008169;28;20057;-65
2024/01/06 02:28:17;;;;;;;159.60;38.87;;;;;;;;;;5026321;28;20056;-64
2024/01/06 02:30:43;;;;;;;167.00;41.33;;;;;;;;;;5027523;28;20053;-65
2024/01/06 02:33:09;;;;;;;155.67;39.73;;;;;;;;;;5027822;28;20050;-65
2024/01/06 02:35:35;;;;;;;169.73;41.87;;;;;;;;;;5027405;28;20046;-64
2024/01/06 02:38:01;;;;;;;157.57;39.53;;;;;;;;;;5027160;28;20041;-64
2024/01/06 02:40:27;;;;;;;137.43;35.67;;;;;;;;;;5027749;28;20049;-64
2024/01/06 02:42:53;;;;;;;160.60;40.03;;;;;;;;;;5025053;28;20121;-65
2024/01/06 02:45:19;;;;;;;147.00;37.27;;;;;;;;;;5030824;28;20092;-65
2024/01/06 02:47:45;;;;;;;130.93;36.00;;;;;;;;;;5031093;28;20041;-65
2024/01/06 02:50:11;;;;;;;156.50;37.63;;;;;;;;;;5031096;28;20054;-65
2024/01/06 02:52:37;;;;;;;134.40;37.43;;;;;;;;;;5030955;28;20050;-64
2024/01/06 02:55:04;;;;;;;113.43;32.43;;;;;;;;;;5031055;28;20053;-65
2024/01/06 02:57:30;;;;;;;98.67;31.50;;;;;;;;;;5030613;28;20529;-65
2024/01/06 02:59:57;;;;;;;98.77;29.73;;;;;;;;;;5030916;28;20052;-64
2024/01/06 03:02:23;;;;;;;99.57;29.73;;;;;;;;;;5028964;28;20512;-65
2024/01/06 03:04:49;;;;;;;84.93;26.77;;;;;;;;;;5030301;28;20077;-65
2024/01/06 03:07:15;;;;;;;96.80;30.43;;;;;;;;;;5030202;28;20044;-64
2024/01/06 03:09:41;;;;;;;92.30;29.40;;;;;;;;;;5030981;28;20049;-64
2024/01/06 03:12:07;;;;;;;93.17;30.23;;;;;;;;;;5029692;28;20413;-65
2024/01/06 03:14:36;;;;;;;104.17;31.80;;;;;;;;;;5030083;28;20064;-64
2024/01/06 03:17:02;;;;;;;95.47;29.77;;;;;;;;;;5030658;28;20041;-64
2024/01/06 03:19:29;;;;;;;120.10;32.80;;;;;;;;;;5029521;28;20472;-64
2024/01/06 03:21:55;;;;;;;86.00;27.60;;;;;;;;;;5030441;28;20057;-65
2024/01/06 03:24:24;;;;;;;94.30;28.77;;;;;;;;;;5030118;28;20049;-65
2024/01/06 03:26:50;;;;;;;92.93;30.17;;;;;;;;;;5030165;28;20095;-64
2024/01/06 03:29:17;;;;;;;114.80;31.23;;;;;;;;;;5030367;28;20056;-65
2024/01/06 03:31:43;;;;;;;80.63;27.43;;;;;;;;;;5030506;28;20041;-64
2024/01/06 03:34:11;;;;;;;102.17;28.80;;;;;;;;;;5023257;28;20046;-64
2024/01/06 03:36:37;;;;;;;93.00;29.30;;;;;;;;;;5026450;28;20041;-64
2024/01/06 03:39:03;;;;;;;89.37;27.43;;;;;;;;;;5030123;28;20049;-64
2024/01/06 03:41:29;;;;;;;103.10;31.27;;;;;;;;;;5045363;28;20045;-65
2024/01/06 03:43:55;;;;;;;93.97;28.70;;;;;;;;;;5029677;28;20057;-65
2024/01/06 03:46:22;;;;;;;107.93;31.20;;;;;;;;;;5030244;28;20519;-65
2024/01/06 03:48:48;;;;;;;99.53;31.13;;;;;;;;;;5023591;28;20730;-64
2024/01/06 03:51:14;;;;;;;80.43;27.40;;;;;;;;;;5027656;28;20053;-65
2024/01/06 03:53:40;;;;;;;84.07;27.87;;;;;;;;;;5029736;28;20050;-64
2024/01/06 03:56:06;;;;;;;97.10;28.23;;;;;;;;;;5028746;28;20057;-64
2024/01/06 03:58:33;;;;;;;92.97;29.00;;;;;;;;;;5029696;28;20500;-64
2024/01/06 04:00:59;;;;;;;92.93;30.50;;;;;;;;;;5028957;28;20052;-64
2024/01/06 04:03:25;;;;;;;112.60;32.27;;;;;;;;;;5025531;28;20042;-64
2024/01/06 04:05:51;;;;;;;105.73;32.47;;;;;;;;;;5018420;28;20041;-64
2024/01/06 04:08:18;;;;;;;114.57;33.83;;;;;;;;;;5029330;28;20507;-64
2024/01/06 04:10:44;;;;;;;111.90;33.03;;;;;;;;;;5028994;28;20118;-64
2024/01/06 04:13:11;;;;;;;141.00;36.23;;;;;;;;;;5029601;28;20084;-64
2024/01/06 04:15:37;;;;;;;123.30;31.77;;;;;;;;;;5029186;28;20050;-64
2024/01/06 04:18:04;;;;;;;124.47;34.83;;;;;;;;;;5029184;28;20037;-65
2024/01/06 04:20:30;;;;;;;142.07;36.70;;;;;;;;;;5029496;28;20055;-64
2024/01/06 04:22:56;;;;;;;136.53;35.00;;;;;;;;;;5029260;28;20295;-64
2024/01/06 04:25:22;;;;;;;137.73;36.30;;;;;;;;;;5029670;28;20042;-65
2024/01/06 04:27:49;;;;;;;134.80;36.33;;;;;;;;;;5028679;28;20261;-64
2024/01/06 04:30:15;;;;;;;145.10;39.23;;;;;;;;;;5029083;28;20561;-64
2024/01/06 04:32:42;;;;;;;117.70;34.40;;;;;;;;;;5015876;28;20085;-65
2024/01/06 04:35:08;;;;;;;135.40;35.90;;;;;;;;;;5009199;28;20050;-64
2024/01/06 04:37:34;;;;;;;138.03;37.73;;;;;;;;;;5008861;28;20061;-64
2024/01/06 04:40:01;;;;;;;120.67;34.77;;;;;;;;;;5009369;28;20307;-64
2024/01/06 04:42:27;;;;;;;116.70;35.97;;;;;;;;;;5009224;28;20042;-65
2024/01/06 04:44:53;;;;;;;121.17;35.17;;;;;;;;;;5023832;28;20432;-64
2024/01/06 04:47:19;;;;;;;135.70;38.23;;;;;;;;;;5028311;28;20299;-64
2024/01/06 04:49:45;;;;;;;98.60;30.97;;;;;;;;;;5028800;28;20570;-64
2024/01/06 04:52:11;;;;;;;136.83;37.97;;;;;;;;;;5028125;28;20307;-64
2024/01/06 04:54:37;;;;;;;106.37;32.93;;;;;;;;;;5029006;28;20049;-64
2024/01/06 04:57:04;;;;;;;136.57;37.73;;;;;;;;;;5028326;28;20447;-64
2024/01/06 04:59:30;;;;;;;109.80;32.40;;;;;;;;;;5028664;28;20284;-64
2024/01/06 05:01:57;;;;;;;167.30;38.77;;;;;;;;;;5027142;28;20049;-65
2024/01/06 05:04:23;;;;;;;129.37;34.60;;;;;;;;;;5028733;28;20049;-64
2024/01/06 05:06:50;;;;;;;121.33;33.07;;;;;;;;;;5028715;28;20334;-64
2024/01/06 05:09:16;;;;;;;122.87;34.03;;;;;;;;;;5028110;28;20049;-64
2024/01/06 05:11:44;;;;;;;141.17;38.03;;;;;;;;;;5028752;28;20132;-64
2024/01/06 05:14:10;;;;;;;134.47;35.60;;;;;;;;;;5028332;28;20041;-64
2024/01/06 05:16:36;;;;;;;112.80;32.27;;;;;;;;;;5028053;28;20103;-64
2024/01/06 05:19:02;;;;;;;105.47;30.30;;;;;;;;;;5027710;28;20041;-64
2024/01/06 05:21:28;;;;;;;123.70;34.27;;;;;;;;;;5028365;28;20053;-65
2024/01/06 05:23:54;;;;;;;105.17;29.57;;;;;;;;;;5028265;28;20586;-64
2024/01/06 05:26:20;;;;;;;146.07;33.57;;;;;;;;;;5028287;28;20136;-64
2024/01/06 05:28:46;;;;;;;137.97;36.47;;;;;;;;;;5028511;28;20758;-64
2024/01/06 05:31:12;;;;;;;125.33;33.83;;;;;;;;;;5027265;28;20366;-64
2024/01/06 05:33:38;;;;;;;107.90;30.47;;;;;;;;;;5028396;28;20292;-64
2024/01/06 05:36:04;;;;;;;99.77;32.27;;;;;;;;;;5028345;28;20092;-65
2024/01/06 05:38:30;;;;;;;144.70;36.90;;;;;;;;;;5028166;28;20486;-64
2024/01/06 05:40:56;;;;;;;130.30;35.47;;;;;;;;;;5026957;28;20288;-65
2024/01/06 05:43:22;;;;;;;109.40;31.50;;;;;;;;;;5025256;28;20099;-65
2024/01/06 05:45:48;;;;;;;103.97;29.90;;;;;;;;;;5008297;28;20293;-65
2024/01/06 05:48:14;;;;;;;103.40;29.27;;;;;;;;;;5008374;28;20053;-64
2024/01/06 05:50:41;;;;;;;112.80;32.70;;;;;;;;;;5008552;28;20128;-64
2024/01/06 05:53:07;;;;;;;101.50;28.00;;;;;;;;;;5021364;28;20092;-64
2024/01/06 05:55:33;;;;;;;109.53;28.33;;;;;;;;;;5027540;28;20091;-64
2024/01/06 05:58:00;;;;;;;111.53;29.67;;;;;;;;;;5026873;28;20311;-64
2024/01/06 06:00:26;;;;;;;91.57;28.37;;;;;;;;;;5008278;28;20060;-64
2024/01/06 06:02:52;;;;;;;87.37;27.20;;;;;;;;;;5008679;28;20065;-64
2024/01/06 06:05:20;;;;;;;99.53;28.60;;;;;;;;;;5008249;28;20042;-65
2024/01/06 06:07:46;;;;;;;121.03;31.67;;;;;;;;;;5026644;28;20156;-64
2024/01/06 06:10:12;;;;;;;91.73;29.47;;;;;;;;;;5027803;28;20059;-65
2024/01/06 06:12:38;;;;;;;94.20;28.67;;;;;;;;;;5026276;28;20049;-64
2024/01/06 06:15:06;;;;;;;97.93;26.27;;;;;;;;;;5027612;28;20119;-65
2024/01/06 06:17:32;;;;;;;100.90;30.30;;;;;;;;;;5027765;28;20116;-65
2024/01/06 06:19:59;;;;;;;125.33;31.30;;;;;;;;;;5030964;28;20311;-64
2024/01/06 06:22:32;;;;;;;120.30;30.33;;;;;;;;;;5031788;28;20052;-64
2024/01/06 06:24:58;;;;;;;105.20;30.25;;;;;;;;;;5030356;28;20132;-64
2024/01/06 06:27:24;;;;;;;103.50;31.20;;;;;;;;;;5030247;28;20077;-64
2024/01/06 06:29:50;;;;;;;116.90;30.83;;;;;;;;;;5031571;28;20890;-65
2024/01/06 06:32:16;;;;;;;106.07;29.10;;;;;;;;;;5031243;28;20495;-64
2024/01/06 06:34:42;;;;;;;97.30;27.53;;;;;;;;;;5031452;28;20052;-64
2024/01/06 06:37:08;;;;;;;92.33;29.07;;;;;;;;;;5031231;28;20041;-65
2024/01/06 06:39:35;;;;;;;116.50;31.80;;;;;;;;;;5030999;28;20625;-64
2024/01/06 06:42:01;;;;;;;100.00;30.13;;;;;;;;;;5031057;28;20053;-64
2024/01/06 06:44:27;;;;;;;104.57;32.03;;;;;;;;;;5031145;28;20060;-64
2024/01/06 06:46:53;;;;;;;98.37;31.77;;;;;;;;;;5031163;28;20056;-64
2024/01/06 06:49:19;;;;;;;182.17;39.37;;;;;;;;;;5030344;28;20057;-64
2024/01/06 06:51:49;;;;;;;87.57;28.27;;;;;;;;;;5030690;28;20277;-64
2024/01/06 06:54:15;;;;;;;105.07;31.90;;;;;;;;;;5031079;28;20227;-64
2024/01/06 06:56:42;;;;;;;73.90;24.40;;;;;;;;;;5031138;28;20132;-65
2024/01/06 06:59:08;;;;;;;98.60;30.93;;;;;;;;;;5030791;28;20196;-64
2024/01/06 07:01:35;;;;;;;114.20;32.27;;;;;;;;;;5030707;28;20311;-64
2024/01/06 07:04:02;;;;;;;89.23;28.27;;;;;;;;;;5030070;28;20037;-64
2024/01/06 07:06:28;;;;;;;102.13;29.60;;;;;;;;;;5030200;28;20054;-65
2024/01/06 07:08:54;;;;;;;91.40;30.33;;;;;;;;;;5030896;28;20292;-64
2024/01/06 07:11:20;;;;;;;83.80;27.93;;;;;;;;;;5029899;28;20049;-64
2024/01/06 07:13:46;;;;;;;83.30;29.77;;;;;;;;;;5010688;28;20289;-64
2024/01/06 07:16:12;;;;;;;81.47;28.33;;;;;;;;;;5010959;28;20346;-64
2024/01/06 07:18:38;;;;;;;86.77;26.73;;;;;;;;;;5015135;28;20095;-64
2024/01/06 07:21:06;;;;;;;88.07;26.87;;;;;;;;;;5030458;28;20119;-64
2024/01/06 07:23:32;;;;;;;86.37;26.97;;;;;;;;;;5030618;28;20046;-64
2024/01/06 07:25:58;;;;;;;75.90;25.60;;;;;;;;;;5029933;28;20045;-64
2024/01/06 07:28:25;;;;;;;85.83;26.87;;;;;;;;;;5028633;28;20076;-64
2024/01/06 07:30:51;;;;;;;94.77;29.40;;;;;;;;;;5030313;28;20304;-64
2024/01/06 07:33:17;;;;;;;76.60;26.13;;;;;;;;;;5029827;28;20410;-64
2024/01/06 07:35:43;;;;;;;70.10;26.03;;;;;;;;;;5030415;28;20080;-64
2024/01/06 07:38:12;;;;;;;66.70;25.40;;;;;;;;;;5029462;28;20494;-64
2024/01/06 07:40:38;;;;;;;76.10;26.77;;;;;;;;;;5029353;28;20594;-64
2024/01/06 07:43:04;;;;;;;76.97;26.00;;;;;;;;;;5030406;28;20037;-64
2024/01/06 07:45:33;;;;;;;76.87;26.97;;;;;;;;;;5029988;28;20045;-64
2024/01/06 07:48:00;;;;;;;70.43;27.33;;;;;;;;;;5029341;28;20307;-65
2024/01/06 07:50:26;;;;;;;78.37;28.07;;;;;;;;;;5030115;28;20312;-64
2024/01/06 07:52:52;;;;;;;79.67;28.93;;;;;;;;;;5029829;28;20060;-64
2024/01/06 07:55:19;;;;;;;57.70;22.60;;;;;;;;;;5030035;28;20072;-64
2024/01/06 07:57:45;;;;;;;66.63;25.17;;;;;;;;;;5029355;28;20084;-65
2024/01/06 08:00:15;;;;;;;67.63;24.77;;;;;;;;;;5029701;28;20069;-64
2024/01/06 08:02:41;;;;;;;66.57;24.40;;;;;;;;;;5029626;28;20048;-64
2024/01/06 08:05:08;;;;;;;55.57;23.03;;;;;;;;;;5030020;28;21193;-64
2024/01/06 08:07:34;;;;;;;62.10;24.83;;;;;;;;;;5029988;28;20376;-65
2024/01/06 08:10:00;;;;;;;62.13;23.23;;;;;;;;;;5026549;28;20500;-64
2024/01/06 08:12:26;;;;;;;69.43;24.50;;;;;;;;;;5029826;28;20091;-65
2024/01/06 08:14:52;;;;;;;66.73;26.03;;;;;;;;;;5027592;28;20050;-64
2024/01/06 08:17:18;;;;;;;59.20;24.33;;;;;;;;;;5029154;28;20038;-64
2024/01/06 08:19:46;;;;;;;60.03;24.37;;;;;;;;;;5029164;28;20061;-64
2024/01/06 08:22:12;;;;;;;60.83;23.43;;;;;;;;;;5029242;28;20563;-65
2024/01/06 08:24:38;;;;;;;61.47;24.80;;;;;;;;;;5027759;28;20314;-64
2024/01/06 08:27:04;;;;;;;62.13;24.43;;;;;;;;;;5028534;28;20346;-64
2024/01/06 08:29:31;;;;;;;48.33;22.07;;;;;;;;;;5028361;28;20296;-64
2024/01/06 08:31:57;;;;;;;54.77;23.27;;;;;;;;;;5014044;28;20920;-64
2024/01/06 08:34:23;;;;;;;67.80;23.93;;;;;;;;;;5025459;28;20045;-65
2024/01/06 08:36:49;;;;;;;55.63;23.33;;;;;;;;;;5029084;28;20128;-64
2024/01/06 08:39:15;;;;;;;52.27;23.63;;;;;;;;;;5029262;28;20499;-64
2024/01/06 08:41:41;;;;;;;49.37;21.07;;;;;;;;;;5028123;28;20132;-64
2024/01/06 08:44:07;;;;;;;48.13;21.80;;;;;;;;;;5026316;28;20117;-64
2024/01/06 08:46:33;;;;;;;52.73;23.70;;;;;;;;;;5028802;28;20047;-65
2024/01/06 08:49:00;;;;;;;52.07;22.60;;;;;;;;;;5028700;28;20045;-64
2024/01/06 08:51:26;;;;;;;52.17;22.40;;;;;;;;;;5028866;28;20149;-64
2024/01/06 08:53:53;;;;;;;39.77;19.77;;;;;;;;;;5028305;28;20570;-64
2024/01/06 08:56:19;;;;;;;44.57;19.90;;;;;;;;;;5027596;28;20502;-64
2024/01/06 08:58:45;;;;;;;44.27;20.83;;;;;;;;;;5027024;28;20124;-64
2024/01/06 09:01:13;;;;;;;50.47;22.50;;;;;;;;;;5028632;28;20049;-64
2024/01/06 09:03:39;;;;;;;49.87;21.93;;;;;;;;;;5026801;28;20053;-64
2024/01/06 09:06:05;;;;;;;41.67;19.93;;;;;;;;;;5026472;28;20060;-64
2024/01/06 09:08:31;;;;;;;42.97;21.17;;;;;;;;;;5027708;28;20042;-64
2024/01/06 09:10:58;;;;;;;49.43;22.90;;;;;;;;;;5028856;28;20414;-65
2024/01/06 09:13:24;;;;;;;47.67;21.87;;;;;;;;;;5028797;28;20049;-65
2024/01/06 09:15:53;;;;;;;46.87;21.67;;;;;;;;;;5027519;28;20049;-64
2024/01/06 09:18:19;;;;;;;45.27;21.17;;;;;;;;;;5026343;28;20334;-65
2024/01/06 09:20:48;;;;;;;44.03;20.43;;;;;;;;;;5034311;28;20122;-65
2024/01/06 09:23:14;;;;;;;37.73;19.13;;;;;;;;;;5037053;28;20119;-65
2024/01/06 09:25:40;;;;;;;42.23;20.77;;;;;;;;;;5038928;28;20044;-65
2024/01/06 09:28:06;;;;;;;44.30;21.17;;;;;;;;;;5036952;28;20047;-65
2024/01/06 09:30:32;;;;;;;41.07;21.03;;;;;;;;;;5033793;28;20049;-65
2024/01/06 09:32:58;;;;;;;46.33;21.93;;;;;;;;;;5034607;28;20069;-65
2024/01/06 09:35:24;;;;;;;44.17;22.10;;;;;;;;;;5034997;28;20131;-65
2024/01/06 09:37:50;;;;;;;36.20;19.20;;;;;;;;;;5033293;28;20511;-64
2024/01/06 09:40:21;;;;;;;37.10;18.93;;;;;;;;;;5035270;28;20046;-65
2024/01/06 09:42:47;;;;;;;39.13;19.20;;;;;;;;;;5034756;28;20079;-64
2024/01/06 09:45:13;;;;;;;39.07;20.20;;;;;;;;;;5037977;28;20068;-65
2024/01/06 09:47:40;;;;;;;34.67;18.67;;;;;;;;;;5040061;28;20064;-64
2024/01/06 09:50:09;;;;;;;36.13;19.10;;;;;;;;;;5034901;28;20103;-65
2024/01/06 09:52:40;;;;;;;39.37;20.00;;;;;;;;;;5034193;28;20052;-64
2024/01/06 09:55:09;;;;;;;36.23;20.77;;;;;;;;;;5030453;28;20053;-64
2024/01/06 09:57:35;;;;;;;35.53;20.23;;;;;;;;;;5044955;28;20056;-65
2024/01/06 10:00:02;;;;;;;38.30;20.13;;;;;;;;;;5035811;28;20037;-64
2024/01/06 10:02:28;;;;;;;31.80;18.03;;;;;;;;;;5039330;28;20044;-64
2024/01/06 10:04:54;;;;;;;33.57;18.83;;;;;;;;;;5036792;28;20049;-64
2024/01/06 10:07:20;;;;;;;36.73;19.23;;;;;;;;;;5041089;28;20099;-64
2024/01/06 10:09:46;;;;;;;34.13;18.93;;;;;;;;;;5040743;28;20510;-64
2024/01/06 10:12:12;;;;;;;34.57;19.67;;;;;;;;;;5040080;28;20033;-64
2024/01/06 10:14:39;;;;;;;35.03;18.77;;;;;;;;;;5039977;28;20041;-64
2024/01/06 10:17:08;;;;;;;33.33;19.10;;;;;;;;;;5044282;28;20063;-64
2024/01/06 10:19:36;;;;;;;33.97;18.93;;;;;;;;;;5040547;28;20048;-64
2024/01/06 10:22:02;;;;;;;51.70;22.20;;;;;;;;;;5036706;28;20049;-64
2024/01/06 10:24:30;;;;;;;38.70;19.37;;;;;;;;;;5039542;28;20415;-64
2024/01/06 10:26:56;;;;;;;35.23;19.87;;;;;;;;;;5040872;28;20507;-64
2024/01/06 10:29:22;;;;;;;37.87;20.60;;;;;;;;;;5039087;28;20076;-64
2024/01/06 10:31:49;;;;;;;35.80;20.13;;;;;;;;;;5042397;28;20045;-64
2024/01/06 10:34:15;;;;;;;36.37;20.37;;;;;;;;;;5040429;28;20400;-64
2024/01/06 10:36:42;;;;;;;35.27;19.77;;;;;;;;;;5044709;28;20072;-64
2024/01/06 10:39:09;;;;;;;33.53;18.43;;;;;;;;;;5041127;28;20056;-63
2024/01/06 10:41:37;;;;;;;28.57;16.63;;;;;;;;;;5043822;28;20045;-64
2024/01/06 10:44:03;;;;;;;32.43;18.23;;;;;;;;;;5044579;28;20060;-64
2024/01/06 10:46:31;;;;;;;33.47;18.87;;;;;;;;;;5043617;28;20396;-64
2024/01/06 10:48:57;;;;;;;36.07;19.40;;;;;;;;;;5039911;28;20072;-64
2024/01/06 10:51:23;;;;;;;31.20;17.60;;;;;;;;;;5041055;28;20060;-63
2024/01/06 10:53:50;;;;;;;34.83;20.40;;;;;;;;;;5039370;28;20045;-64
2024/01/06 10:56:16;;;;;;;35.07;19.00;;;;;;;;;;5044979;28;20071;-64
2024/01/06 10:58:47;;;;;;;34.00;18.70;;;;;;;;;;5036728;28;20480;-64
2024/01/06 11:01:13;;;;;;;31.13;18.43;;;;;;;;;;5036873;28;20048;-64
2024/01/06 11:03:40;;;;;;;30.00;16.80;;;;;;;;;;5039565;28;21523;-64
2024/01/06 11:06:07;;;;;;;34.77;18.07;;;;;;;;;;5037588;28;20049;-64
2024/01/06 11:08:37;;;;;;;32.37;18.47;;;;;;;;;;5050574;28;20124;-64
2024/01/06 11:11:03;;;;;;;32.60;18.13;;;;;;;;;;5050443;28;20837;-64
2024/01/06 11:13:29;;;;;;;32.00;18.07;;;;;;;;;;5051129;28;20128;-64
2024/01/06 11:15:55;;;;;;;31.47;17.83;;;;;;;;;;5050855;28;20049;-64
2024/01/06 11:18:34;;;;;;;34.47;17.57;;;;;;;;;;5050946;28;20087;-64
2024/01/06 11:21:33;;;;;;;34.17;18.57;;;;;;;;;;5050774;28;20060;-64
2024/01/06 11:24:26;;;;;;;35.13;19.20;;;;;;;;;;5050433;28;20041;-64
2024/01/06 11:26:53;;;;;;;29.77;16.75;;;;;;;;;;5049671;28;20088;-64
2024/01/06 11:29:22;;;;;;;27.83;17.17;;;;;;;;;;5050695;28;20037;-64
2024/01/06 11:32:07;;;;;;;24.90;15.60;;;;;;;;;;5050884;28;20051;-64
2024/01/06 11:34:37;;;;;;;25.30;15.47;;;;;;;;;;5050477;28;20087;-64
2024/01/06 11:37:04;;;;;;;28.40;16.03;;;;;;;;;;5049589;28;20053;-64
2024/01/06 11:39:38;;;;;;;27.57;16.47;;;;;;;;;;5050596;28;20067;-64
2024/01/06 11:42:04;;;;;;;24.77;14.73;;;;;;;;;;5049947;28;20045;-64
2024/01/06 11:44:33;;;;;;;24.43;15.53;;;;;;;;;;5050091;28;20417;-64
2024/01/06 11:47:00;;;;;;;23.20;14.57;;;;;;;;;;5050276;28;20514;-64
2024/01/06 11:49:29;;;;;;;23.10;14.63;;;;;;;;;;5049993;28;20044;-64
2024/01/06 11:51:55;;;;;;;22.63;14.07;;;;;;;;;;5050483;28;20041;-64
2024/01/06 11:54:24;;;;;;;24.57;15.13;;;;;;;;;;5050119;28;20044;-64
2024/01/06 11:56:53;;;;;;;23.90;14.60;;;;;;;;;;5049845;28;20163;-63
2024/01/06 11:59:19;;;;;;;25.07;15.10;;;;;;;;;;5050197;28;20128;-64
2024/01/06 12:01:46;;;;;;;21.03;14.33;;;;;;;;;;5049957;28;20049;-64
2024/01/06 12:04:15;;;;;;;26.77;15.40;;;;;;;;;;5050069;28;20045;-64
2024/01/06 12:06:41;;;;;;;26.03;14.80;;;;;;;;;;5049963;28;20049;-63
2024/01/06 12:09:09;;;;;;;21.80;14.67;;;;;;;;;;5049559;28;20053;-63
2024/01/06 12:11:37;;;;;;;25.20;14.87;;;;;;;;;;5050025;28;20044;-64
2024/01/06 12:14:03;;;;;;;22.80;14.83;;;;;;;;;;5049480;28;20059;-64
2024/01/06 12:16:31;;;;;;;24.13;14.63;;;;;;;;;;5049309;28;20084;-64
2024/01/06 12:19:00;;;;;;;28.17;16.33;;;;;;;;;;5049647;28;20049;-64
2024/01/06 12:21:26;;;;;;;26.50;16.27;;;;;;;;;;5049642;28;20586;-64
2024/01/06 12:23:52;;;;;;;25.27;15.90;;;;;;;;;;5049969;28;20041;-64
2024/01/06 12:26:18;;;;;;;30.33;17.13;;;;;;;;;;5049497;28;20093;-63
2024/01/06 12:28:45;;;;;;;29.03;18.07;;;;;;;;;;5049119;28;20128;-64
2024/01/06 12:31:12;;;;;;;26.83;16.63;;;;;;;;;;5049324;28;20052;-63
2024/01/06 12:33:38;;;;;;;30.50;18.27;;;;;;;;;;5049502;28;20064;-64
2024/01/06 12:36:05;;;;;;;26.83;16.40;;;;;;;;;;5049230;28;20495;-63
2024/01/06 12:38:31;;;;;;;31.80;18.43;;;;;;;;;;5049414;28;20658;-64
2024/01/06 12:40:57;;;;;;;29.50;17.33;;;;;;;;;;5049117;28;20048;-64
2024/01/06 12:43:23;;;;;;;30.97;17.00;;;;;;;;;;5048604;28;20072;-64
2024/01/06 12:45:52;;;;;;;29.33;17.10;;;;;;;;;;5049121;28;20565;-64
2024/01/06 12:48:18;;;;;;;33.87;17.30;;;;;;;;;;5049178;28;20056;-63
2024/01/06 12:50:44;;;;;;;31.03;16.80;;;;;;;;;;5048930;28;20065;-63
2024/01/06 12:53:15;;;;;;;31.33;17.80;;;;;;;;;;5049251;28;20099;-64
2024/01/06 12:55:41;;;;;;;32.60;17.73;;;;;;;;;;5048334;28;20576;-63
2024/01/06 12:58:08;;;;;;;34.83;18.43;;;;;;;;;;5048638;28;20110;-63
2024/01/06 13:00:34;;;;;;;30.20;17.77;;;;;;;;;;5049054;28;20040;-63
2024/01/06 13:03:00;;;;;;;33.93;18.47;;;;;;;;;;5048696;28;20124;-64
2024/01/06 13:05:26;;;;;;;29.83;18.30;;;;;;;;;;5048788;28;20063;-63
2024/01/06 13:07:52;;;;;;;32.27;17.43;;;;;;;;;;5048415;28;20085;-63
2024/01/06 13:10:18;;;;;;;28.33;17.47;;;;;;;;;;5048581;28;20098;-63
2024/01/06 13:12:44;;;;;;;33.00;17.90;;;;;;;;;;5048700;28;20059;-64
2024/01/06 13:15:11;;;;;;;29.50;17.33;;;;;;;;;;5048714;28;20037;-63
2024/01/06 13:17:37;;;;;;;32.00;17.50;;;;;;;;;;5048634;28;20052;-63
2024/01/06 13:20:03;;;;;;;27.13;17.10;;;;;;;;;;5048654;28;20106;-63
2024/01/06 13:22:30;;;;;;;30.70;18.03;;;;;;;;;;5048801;28;20115;-63
2024/01/06 13:24:56;;;;;;;30.33;18.17;;;;;;;;;;5048146;28;20521;-64
2024/01/06 13:27:22;;;;;;;30.90;18.70;;;;;;;;;;5048055;28;20072;-63
2024/01/06 13:29:48;;;;;;;29.23;17.70;;;;;;;;;;5048374;28;20140;-63
2024/01/06 13:32:15;;;;;;;31.20;18.33;;;;;;;;;;5048380;28;20049;-64
2024/01/06 13:34:41;;;;;;;32.00;18.83;;;;;;;;;;5048456;28;20068;-63
2024/01/06 13:37:08;;;;;;;31.23;18.67;;;;;;;;;;5048078;28;20128;-63
2024/01/06 13:39:34;;;;;;;33.63;17.97;;;;;;;;;;5048151;28;20041;-63
2024/01/06 13:41:59;;;;;;;33.40;18.70;;;;;;;;;;5048336;28;20044;-63
2024/01/06 13:44:26;;;;;;;36.83;20.17;;;;;;;;;;5048345;28;20092;-64
2024/01/06 13:46:54;;;;;;;32.37;19.67;;;;;;;;;;5048129;28;20056;-63
2024/01/06 13:49:20;;;;;;;29.07;17.83;;;;;;;;;;5048149;28;20851;-63
2024/01/06 13:51:46;;;;;;;33.67;18.57;;;;;;;;;;5048181;28;20045;-63
2024/01/06 13:54:12;;;;;;;32.60;19.90;;;;;;;;;;5047750;28;20885;-63
2024/01/06 13:56:38;;;;;;;34.63;20.07;;;;;;;;;;5048076;28;20567;-63
2024/01/06 13:59:04;;;;;;;35.93;19.83;;;;;;;;;;5048136;28;20127;-63
2024/01/06 14:01:31;;;;;;;32.73;19.93;;;;;;;;;;5048074;28;20076;-64
2024/01/06 14:04:00;;;;;;;31.27;18.93;;;;;;;;;;5047903;28;20037;-63
2024/01/06 14:06:29;;;;;;;33.93;19.43;;;;;;;;;;5048376;28;20053;-64
2024/01/06 14:08:56;;;;;;;36.70;19.27;;;;;;;;;;5048075;28;20049;-64
2024/01/06 14:11:21;;;;;;;36.23;20.03;;;;;;;;;;5048322;28;20052;-63